Time;durP1;ratioP1;P1;durP2;ratioP2;P2;SDS_P1;SDS_P2;PMS_P1;PMS_P2;Temp;Humidity;BMP_temperature;BMP_pressure;BME280_temperature;BME280_humidity;BME280_pressure;Samples;Min_cycle;Max_cycle;Signal;HPM_P1;HPM_P2
2024/03/16 00:00:06;;;;;;;0.20;0.20;;;;;;;8.92;100.00;98928.44;5039274;28;20139;-58
2024/03/16 00:02:33;;;;;;;0.20;0.20;;;;;;;8.89;100.00;98931.59;5038313;28;20126;-58
2024/03/16 00:05:01;;;;;;;0.30;0.30;;;;;;;8.83;100.00;98931.47;5061269;28;20044;-59
2024/03/16 00:07:28;;;;;;;0.20;0.20;;;;;;;8.85;100.00;98932.03;5056202;28;20055;-58
2024/03/16 00:09:56;;;;;;;0.30;0.30;;;;;;;8.85;100.00;98933.91;5043638;28;20497;-58
2024/03/16 00:12:23;;;;;;;0.20;0.20;;;;;;;8.85;100.00;98936.59;5018467;28;20049;-58
2024/03/16 00:14:50;;;;;;;0.20;0.20;;;;;;;8.70;100.00;98918.41;5038098;28;20483;-58
2024/03/16 00:17:20;;;;;;;0.30;0.30;;;;;;;8.73;100.00;98923.25;5039798;28;20148;-58
2024/03/16 00:19:51;;;;;;;0.28;0.28;;;;;;;8.83;100.00;98928.78;5021808;28;20083;-58
2024/03/16 00:22:21;;;;;;;0.30;0.30;;;;;;;8.93;100.00;98930.03;5064303;28;20063;-58
2024/03/16 00:24:49;;;;;;;;;;;;;;;8.95;100.00;98925.28;5035901;28;20386;-57
2024/03/16 00:27:18;;;;;;;0.30;0.30;;;;;;;8.90;100.00;98927.84;5048805;28;19928;-57
2024/03/16 00:29:45;;;;;;;0.22;0.22;;;;;;;8.92;100.00;98936.47;5043466;28;20055;-58
2024/03/16 00:32:12;;;;;;;0.30;0.30;;;;;;;8.93;100.00;98922.03;5028545;28;20051;-58
2024/03/16 00:34:39;;;;;;;0.30;0.30;;;;;;;8.99;100.00;98915.75;5015874;28;20053;-57
2024/03/16 00:37:07;;;;;;;0.20;0.20;;;;;;;8.97;100.00;98912.50;5042544;28;20037;-57
2024/03/16 00:39:35;;;;;;;0.30;0.30;;;;;;;9.03;100.00;98917.66;5038717;28;20046;-57
2024/03/16 00:42:02;;;;;;;0.30;0.30;;;;;;;8.94;100.00;98921.00;5043024;28;20133;-57
2024/03/16 00:44:30;;;;;;;0.22;0.22;;;;;;;8.93;100.00;98912.13;5026277;28;20056;-57
2024/03/16 00:46:57;;;;;;;0.30;0.30;;;;;;;8.84;100.00;98924.28;5035601;28;20395;-57
2024/03/16 00:49:24;;;;;;;0.30;0.30;;;;;;;8.76;100.00;98922.81;5037183;28;20045;-58
2024/03/16 00:51:52;;;;;;;0.28;0.28;;;;;;;8.71;100.00;98922.72;5070816;28;20060;-58
2024/03/16 00:54:22;;;;;;;;;;;;;;;8.69;100.00;98926.66;5036547;28;20047;-58
2024/03/16 00:56:51;;;;;;;0.30;0.30;;;;;;;8.65;100.00;98926.31;5060459;28;20520;-58
2024/03/16 00:59:18;;;;;;;0.20;0.20;;;;;;;8.61;100.00;98919.81;5037891;28;20056;-58
2024/03/16 01:01:45;;;;;;;0.20;0.20;;;;;;;8.55;100.00;98931.47;5040190;28;20056;-58
2024/03/16 01:04:13;;;;;;;0.30;0.30;;;;;;;8.50;100.00;98939.38;5039142;28;20044;-57
2024/03/16 01:06:41;;;;;;;0.30;0.30;;;;;;;8.47;100.00;98929.16;5024645;28;20098;-58
2024/03/16 01:09:08;;;;;;;0.25;0.25;;;;;;;8.37;100.00;98933.19;5042141;28;20518;-58
2024/03/16 01:11:35;;;;;;;0.30;0.30;;;;;;;8.44;100.00;98935.78;5032255;28;20065;-58
2024/03/16 01:14:02;;;;;;;0.20;0.20;;;;;;;8.42;100.00;98928.00;5039713;28;20056;-58
2024/03/16 01:16:29;;;;;;;0.20;0.20;;;;;;;8.33;100.00;98934.72;5036836;28;20040;-57
2024/03/16 01:18:57;;;;;;;0.30;0.30;;;;;;;8.39;100.00;98936.50;5037921;28;20226;-58
2024/03/16 01:21:24;;;;;;;0.30;0.30;;;;;;;8.42;100.00;98938.69;5020520;28;20050;-58
2024/03/16 01:23:53;;;;;;;0.20;0.20;;;;;;;8.44;100.00;98949.13;5009103;28;20376;-57
2024/03/16 01:26:20;;;;;;;0.20;0.20;;;;;;;8.37;100.00;98941.22;5037192;28;20045;-58
2024/03/16 01:28:48;;;;;;;0.30;0.30;;;;;;;8.40;100.00;98945.31;5027617;28;20126;-58
2024/03/16 01:31:18;;;;;;;;;;;;;;;8.52;100.00;98950.63;5036395;28;20043;-58
2024/03/16 01:33:45;;;;;;;0.32;0.32;;;;;;;8.46;100.00;98947.03;5068591;28;19930;-58
2024/03/16 01:36:13;;;;;;;0.30;0.30;;;;;;;8.55;100.00;98947.47;5045768;28;20068;-57
2024/03/16 01:38:41;;;;;;;0.30;0.30;;;;;;;8.61;100.00;98943.84;5035127;28;20045;-58
2024/03/16 01:41:10;;;;;;;0.25;0.25;;;;;;;8.58;100.00;98944.34;5006801;28;20450;-57
2024/03/16 01:43:38;;;;;;;0.20;0.20;;;;;;;8.56;100.00;98947.25;5041178;28;20458;-58
2024/03/16 01:46:05;;;;;;;0.30;0.30;;;;;;;8.50;100.00;98944.72;5021451;28;20672;-57
2024/03/16 01:48:32;;;;;;;0.30;0.30;;;;;;;8.49;100.00;98945.78;5042704;28;20076;-57
2024/03/16 01:50:59;;;;;;;0.30;0.30;;;;;;;8.52;100.00;98939.94;5039969;28;20090;-58
2024/03/16 01:53:27;;;;;;;0.28;0.28;;;;;;;8.62;100.00;98945.50;5027139;28;20044;-58
2024/03/16 01:55:54;;;;;;;0.20;0.20;;;;;;;8.67;100.00;98942.13;5038444;28;20123;-58
2024/03/16 01:58:22;;;;;;;0.20;0.20;;;;;;;8.67;100.00;98944.78;5022821;28;20065;-58
2024/03/16 02:00:53;;;;;;;0.22;0.22;;;;;;;8.64;100.00;98946.88;5029440;28;20053;-58
2024/03/16 02:03:20;;;;;;;0.28;0.28;;;;;;;8.67;100.00;98945.59;5038372;28;20118;-58
2024/03/16 02:05:47;;;;;;;0.30;0.30;;;;;;;8.62;100.00;98942.81;5035727;28;20041;-57
2024/03/16 02:08:15;;;;;;;0.30;0.30;;;;;;;8.67;100.00;98937.56;5036042;28;20040;-58
2024/03/16 02:10:42;;;;;;;0.25;0.25;;;;;;;8.74;100.00;98940.94;5034766;28;20057;-57
2024/03/16 02:13:10;;;;;;;0.20;0.20;;;;;;;8.71;100.00;98936.06;5021044;28;20106;-58
2024/03/16 02:15:37;;;;;;;0.30;0.30;;;;;;;8.77;100.00;98945.78;5033579;28;20037;-58
2024/03/16 02:18:04;;;;;;;0.30;0.30;;;;;;;8.73;100.00;98944.63;5043785;28;20052;-57
2024/03/16 02:20:32;;;;;;;0.30;0.30;;;;;;;8.75;100.00;98939.88;5040196;28;20135;-58
2024/03/16 02:22:59;;;;;;;0.30;0.30;;;;;;;8.61;100.00;98952.69;5029283;28;20041;-57
2024/03/16 02:25:26;;;;;;;0.28;0.28;;;;;;;8.62;100.00;98953.50;5040029;28;20041;-58
2024/03/16 02:27:54;;;;;;;0.20;0.20;;;;;;;8.65;100.00;98945.00;5037302;28;20053;-58
2024/03/16 02:30:22;;;;;;;0.20;0.20;;;;;;;8.70;100.00;98950.47;5028048;28;20056;-58
2024/03/16 02:32:49;;;;;;;0.25;0.25;;;;;;;8.78;100.00;98954.63;5045341;28;20056;-58
2024/03/16 02:35:16;;;;;;;0.22;0.22;;;;;;;8.96;100.00;98956.28;5025214;28;20138;-58
2024/03/16 02:37:44;;;;;;;0.22;0.22;;;;;;;8.87;100.00;98960.41;5028564;28;20060;-58
2024/03/16 02:40:11;;;;;;;0.20;0.20;;;;;;;8.93;100.00;98956.78;5035087;28;20156;-57
2024/03/16 02:42:40;;;;;;;0.30;0.30;;;;;;;8.99;100.00;98963.84;5043579;28;20137;-58
2024/03/16 02:45:09;;;;;;;0.20;0.20;;;;;;;8.95;100.00;98955.50;5038928;28;20121;-58
2024/03/16 02:47:36;;;;;;;0.30;0.30;;;;;;;8.99;100.00;98966.53;5026380;28;20063;-57
2024/03/16 02:50:04;;;;;;;0.30;0.30;;;;;;;9.04;100.00;98963.94;5036311;28;20079;-57
2024/03/16 02:52:34;;;;;;;0.25;0.25;;;;;;;8.97;100.00;98972.09;5041615;28;20131;-58
2024/03/16 02:55:01;;;;;;;0.25;0.25;;;;;;;8.89;100.00;98963.66;5039236;28;20545;-58
2024/03/16 02:57:28;;;;;;;0.30;0.30;;;;;;;8.91;100.00;98967.72;5032928;28;20045;-57
2024/03/16 02:59:59;;;;;;;0.20;0.20;;;;;;;9.03;100.00;98965.78;5037105;28;20056;-58
2024/03/16 03:02:28;;;;;;;0.20;0.20;;;;;;;8.98;100.00;98968.38;5036524;28;20152;-58
2024/03/16 03:04:55;;;;;;;0.30;0.30;;;;;;;8.93;100.00;98970.13;5046123;28;20029;-58
2024/03/16 03:07:22;;;;;;;0.30;0.30;;;;;;;8.98;100.00;98964.88;5044033;28;20040;-58
2024/03/16 03:09:49;;;;;;;0.30;0.30;;;;;;;8.99;100.00;98974.56;5044343;28;20040;-58
2024/03/16 03:12:17;;;;;;;0.30;0.30;;;;;;;8.96;100.00;98980.34;5034925;28;20115;-58
2024/03/16 03:14:44;;;;;;;0.30;0.30;;;;;;;8.96;100.00;98975.84;5041799;28;20045;-58
2024/03/16 03:17:11;;;;;;;0.20;0.20;;;;;;;8.98;100.00;98978.25;5035458;28;20048;-58
2024/03/16 03:19:40;;;;;;;0.30;0.30;;;;;;;8.97;100.00;98982.78;5026739;28;20059;-58
2024/03/16 03:22:07;;;;;;;0.30;0.30;;;;;;;8.93;100.00;98986.19;5040487;28;20497;-58
2024/03/16 03:24:34;;;;;;;0.30;0.30;;;;;;;8.96;100.00;98991.03;5041174;28;20858;-58
2024/03/16 03:27:01;;;;;;;0.28;0.28;;;;;;;8.91;100.00;98983.75;5023698;28;20093;-58
2024/03/16 03:29:28;;;;;;;0.30;0.30;;;;;;;8.98;100.00;98996.97;5024431;28;20072;-59
2024/03/16 03:31:57;;;;;;;0.20;0.20;;;;;;;9.03;100.00;98989.03;5022330;28;20143;-58
2024/03/16 03:34:25;;;;;;;0.20;0.20;;;;;;;9.03;100.00;98994.41;5020352;28;20466;-58
2024/03/16 03:36:54;;;;;;;0.30;0.30;;;;;;;8.99;100.00;98996.75;5034901;28;20045;-58
2024/03/16 03:39:24;;;;;;;0.28;0.28;;;;;;;9.00;100.00;99000.22;5058659;28;20524;-58
2024/03/16 03:41:52;;;;;;;0.30;0.30;;;;;;;9.04;100.00;98998.72;5039793;28;20439;-58
2024/03/16 03:44:23;;;;;;;0.20;0.20;;;;;;;8.98;100.00;98996.97;5054430;28;20752;-58
2024/03/16 03:46:50;;;;;;;0.30;0.30;;;;;;;9.08;100.00;98999.84;5043469;28;20490;-58
2024/03/16 03:49:26;;;;;;;0.20;0.20;;;;;;;9.05;100.00;99011.81;5046415;28;20072;-58
2024/03/16 03:51:58;;;;;;;0.20;0.20;;;;;;;9.02;100.00;99009.63;5038874;28;20048;-58
2024/03/16 03:54:25;;;;;;;0.20;0.20;;;;;;;8.98;100.00;99015.69;5037853;28;20069;-58
2024/03/16 03:56:52;;;;;;;0.25;0.25;;;;;;;8.98;100.00;99010.34;5036607;28;20037;-58
2024/03/16 03:59:20;;;;;;;0.20;0.20;;;;;;;9.01;100.00;99007.19;5018617;28;20051;-58
2024/03/16 04:01:47;;;;;;;0.30;0.30;;;;;;;8.96;100.00;99001.72;5028797;28;20084;-58
2024/03/16 04:04:14;;;;;;;0.28;0.28;;;;;;;8.95;100.00;99006.28;5025341;28;20068;-58
2024/03/16 04:06:44;;;;;;;0.20;0.20;;;;;;;8.99;100.00;99014.66;5039507;28;20099;-58
2024/03/16 04:09:13;;;;;;;0.30;0.30;;;;;;;9.02;100.00;99011.50;5071009;28;20545;-58
2024/03/16 04:11:40;;;;;;;0.20;0.20;;;;;;;9.10;100.00;99018.31;5043559;28;20098;-58
2024/03/16 04:14:07;;;;;;;0.20;0.20;;;;;;;9.00;100.00;99013.59;5030476;28;20044;-58
2024/03/16 04:16:34;;;;;;;0.20;0.20;;;;;;;8.98;100.00;99011.13;5039925;28;20041;-58
2024/03/16 04:19:04;;;;;;;0.30;0.30;;;;;;;9.06;100.00;99013.47;5047686;28;20086;-58
2024/03/16 04:21:31;;;;;;;0.20;0.20;;;;;;;9.03;100.00;99013.09;5042059;28;20044;-58
2024/03/16 04:24:02;;;;;;;0.30;0.30;;;;;;;9.05;100.00;99016.34;5044118;28;20067;-59
2024/03/16 04:26:30;;;;;;;0.20;0.20;;;;;;;8.97;100.00;99024.75;5042696;28;20119;-58
2024/03/16 04:28:57;;;;;;;0.20;0.20;;;;;;;8.96;100.00;99023.13;5036911;28;20059;-58
2024/03/16 04:31:25;;;;;;;0.20;0.20;;;;;;;8.96;100.00;99020.44;5035218;28;20415;-57
2024/03/16 04:33:52;;;;;;;0.20;0.20;;;;;;;8.83;100.00;99024.19;5036465;28;20414;-58
2024/03/16 04:36:19;;;;;;;0.20;0.20;;;;;;;8.87;100.00;99027.22;5036761;28;20210;-58
2024/03/16 04:38:46;;;;;;;0.30;0.30;;;;;;;8.91;100.00;99023.00;5044816;28;20707;-58
2024/03/16 04:41:13;;;;;;;0.22;0.22;;;;;;;8.95;100.00;99027.66;5068208;28;20190;-58
2024/03/16 04:43:44;;;;;;;0.20;0.20;;;;;;;8.88;100.00;99031.50;5041137;28;20533;-58
2024/03/16 04:46:15;;;;;;;0.20;0.20;;;;;;;8.80;100.00;99030.03;5026030;28;20803;-58
2024/03/16 04:48:42;;;;;;;0.30;0.30;;;;;;;8.88;100.00;99037.66;5042792;28;20479;-58
2024/03/16 04:51:10;;;;;;;0.30;0.30;;;;;;;8.84;100.00;99041.88;5031337;28;20049;-58
2024/03/16 04:53:37;;;;;;;0.20;0.20;;;;;;;8.89;100.00;99043.84;5044417;28;20415;-58
2024/03/16 04:56:04;;;;;;;0.30;0.30;;;;;;;8.77;100.00;99033.97;5031480;28;20060;-58
2024/03/16 04:58:31;;;;;;;0.20;0.20;;;;;;;8.88;100.00;99036.84;5039176;28;20568;-58
2024/03/16 05:01:01;;;;;;;0.30;0.30;;;;;;;8.84;100.00;99041.88;5032299;28;20413;-58
2024/03/16 05:03:28;;;;;;;0.30;0.30;;;;;;;8.88;100.00;99042.19;5032421;28;20260;-58
2024/03/16 05:06:02;;;;;;;0.22;0.22;;;;;;;8.88;100.00;99037.66;5033654;28;20106;-58
2024/03/16 05:08:30;;;;;;;0.20;0.20;;;;;;;8.82;100.00;99044.78;5044673;28;20522;-59
2024/03/16 05:10:59;;;;;;;0.30;0.30;;;;;;;8.84;100.00;99037.34;5071113;28;20493;-58
2024/03/16 05:13:27;;;;;;;0.20;0.20;;;;;;;8.90;100.00;99045.47;5043043;28;20416;-58
2024/03/16 05:15:56;;;;;;;0.30;0.30;;;;;;;8.89;100.00;99043.84;5038464;28;20044;-58
2024/03/16 05:18:23;;;;;;;0.28;0.28;;;;;;;8.82;100.00;99044.78;5033724;28;20047;-58
2024/03/16 05:20:51;;;;;;;0.30;0.30;;;;;;;8.83;100.00;99043.72;5044371;28;20129;-58
2024/03/16 05:23:19;;;;;;;0.30;0.30;;;;;;;8.92;100.00;99054.06;5043492;28;20052;-58
2024/03/16 05:25:47;;;;;;;0.30;0.30;;;;;;;8.84;100.00;99058.72;5040633;28;20033;-58
2024/03/16 05:28:16;;;;;;;0.20;0.20;;;;;;;8.84;100.00;99056.03;5040030;28;20102;-58
2024/03/16 05:30:43;;;;;;;0.20;0.20;;;;;;;8.91;100.00;99063.09;5032531;28;20048;-58
2024/03/16 05:33:10;;;;;;;0.20;0.20;;;;;;;8.80;100.00;99062.91;5043764;28;20137;-61
2024/03/16 05:35:40;;;;;;;0.20;0.20;;;;;;;8.76;100.00;99069.78;5031993;28;20071;-58
2024/03/16 05:38:07;;;;;;;0.30;0.30;;;;;;;8.78;100.00;99075.69;5045438;28;20041;-58
2024/03/16 05:40:35;;;;;;;0.30;0.30;;;;;;;8.76;100.00;99077.78;5027627;28;20101;-58
2024/03/16 05:43:03;;;;;;;0.30;0.30;;;;;;;8.77;100.00;99079.41;5044154;28;20065;-58
2024/03/16 05:45:30;;;;;;;0.30;0.30;;;;;;;8.72;100.00;99087.31;5030616;28;20067;-58
2024/03/16 05:47:57;;;;;;;0.30;0.30;;;;;;;8.81;100.00;99090.44;5039427;28;20052;-60
2024/03/16 05:50:25;;;;;;;0.30;0.30;;;;;;;8.83;100.00;99091.81;5025369;28;20049;-57
2024/03/16 05:52:52;;;;;;;0.30;0.30;;;;;;;8.76;100.00;99083.13;5032881;28;20529;-57
2024/03/16 05:55:20;;;;;;;0.30;0.30;;;;;;;8.76;100.00;99088.47;5025829;28;20053;-57
2024/03/16 05:57:47;;;;;;;0.30;0.30;;;;;;;8.74;100.00;99081.75;5024524;28;20037;-58
2024/03/16 06:00:14;;;;;;;0.30;0.30;;;;;;;8.68;100.00;99088.81;5040309;28;20092;-59
2024/03/16 06:02:42;;;;;;;0.20;0.20;;;;;;;8.56;100.00;99086.16;5039444;28;20051;-58
2024/03/16 06:05:13;;;;;;;0.30;0.30;;;;;;;8.59;100.00;99091.03;5035614;28;20049;-57
2024/03/16 06:07:42;;;;;;;0.25;0.25;;;;;;;8.51;100.00;99106.59;5047776;28;20052;-58
2024/03/16 06:10:10;;;;;;;0.32;0.32;;;;;;;8.60;100.00;99102.53;5029451;28;20053;-58
2024/03/16 06:12:37;;;;;;;0.30;0.30;;;;;;;8.64;100.00;99117.06;5053604;28;20473;-58
2024/03/16 06:15:06;;;;;;;0.30;0.30;;;;;;;8.83;100.00;99112.38;5061216;28;20040;-59
2024/03/16 06:17:39;;;;;;;0.30;0.30;;;;;;;8.65;100.00;99113.34;5039652;28;20129;-58
2024/03/16 06:20:09;;;;;;;0.30;0.30;;;;;;;8.77;100.00;99132.84;5042297;28;20408;-58
2024/03/16 06:22:41;;;;;;;0.30;0.30;;;;;;;8.72;100.00;99140.75;5035574;28;20044;-58
2024/03/16 06:25:10;;;;;;;0.30;0.30;;;;;;;8.74;100.00;99144.00;5031850;28;20128;-58
2024/03/16 06:27:43;;;;;;;0.33;0.33;;;;;;;8.65;100.00;99140.06;5033779;28;20044;-58
2024/03/16 06:30:12;;;;;;;0.30;0.30;;;;;;;8.78;100.00;99145.16;5061536;28;20053;-58
2024/03/16 06:32:44;;;;;;;0.30;0.30;;;;;;;8.70;100.00;99147.38;5021449;28;20044;-58
2024/03/16 06:35:19;;;;;;;0.28;0.28;;;;;;;8.88;100.00;99155.25;5038361;28;20062;-58
2024/03/16 06:37:47;;;;;;;0.25;0.25;;;;;;;8.85;100.00;99151.19;5019198;28;20513;-59
2024/03/16 06:40:15;;;;;;;0.20;0.20;;;;;;;8.85;100.00;99151.19;5035367;28;20116;-58
2024/03/16 06:42:43;;;;;;;0.30;0.30;;;;;;;8.79;100.00;99160.16;5038660;28;20041;-57
2024/03/16 06:45:11;;;;;;;0.30;0.30;;;;;;;8.74;100.00;99159.25;5050525;28;20044;-58
2024/03/16 06:47:38;;;;;;;0.22;0.22;;;;;;;8.78;100.00;99160.38;5036548;28;20549;-58
2024/03/16 06:50:06;;;;;;;0.30;0.30;;;;;;;8.78;100.00;99171.06;5022247;28;20098;-58
2024/03/16 06:52:34;;;;;;;0.40;0.40;;;;;;;8.84;100.00;99165.63;5021955;28;20559;-58
2024/03/16 06:55:03;;;;;;;0.20;0.20;;;;;;;8.95;100.00;99173.88;5036644;28;20126;-58
2024/03/16 06:57:30;;;;;;;0.25;0.25;;;;;;;9.03;100.00;99178.84;5038717;28;20050;-58
2024/03/16 07:00:00;;;;;;;0.30;0.30;;;;;;;9.31;100.00;99196.03;5036402;28;20049;-58
2024/03/16 07:02:27;;;;;;;0.30;0.30;;;;;;;9.32;100.00;99200.34;5018761;28;20044;-58
2024/03/16 07:04:55;;;;;;;0.22;0.22;;;;;;;9.28;100.00;99203.50;5033738;28;20627;-58
2024/03/16 07:07:23;;;;;;;0.22;0.22;;;;;;;9.35;100.00;99205.22;5037278;28;20465;-58
2024/03/16 07:09:52;;;;;;;0.20;0.20;;;;;;;9.22;100.00;99207.09;5037981;28;20056;-58
2024/03/16 07:12:22;;;;;;;0.15;0.15;;;;;;;9.41;100.00;99215.81;5059634;28;20048;-58
2024/03/16 07:14:52;;;;;;;0.30;0.30;;;;;;;9.64;100.00;99212.28;5034145;28;20040;-58
2024/03/16 07:17:19;;;;;;;;;;;;;;;11.08;100.00;99218.28;5041747;28;20090;-58
2024/03/16 07:19:51;;;;;;;0.30;0.30;;;;;;;10.07;100.00;99229.69;5058609;28;19935;-58
2024/03/16 07:22:19;;;;;;;0.30;0.30;;;;;;;9.75;100.00;99225.84;5045193;28;20047;-58
2024/03/16 07:24:46;;;;;;;0.20;0.20;;;;;;;10.01;100.00;99228.00;5038304;28;20447;-58
2024/03/16 07:27:13;;;;;;;0.20;0.20;;;;;;;10.05;100.00;99222.97;5042830;28;20156;-58
2024/03/16 07:29:41;;;;;;;0.20;0.20;;;;;;;10.36;100.00;99232.41;5030365;28;20502;-58
2024/03/16 07:32:08;;;;;;;0.22;0.22;;;;;;;10.33;100.00;99247.09;5008086;28;20060;-58
2024/03/16 07:34:35;;;;;;;0.20;0.20;;;;;;;10.69;100.00;99250.41;5038862;28;20130;-58
2024/03/16 07:37:04;;;;;;;0.20;0.20;;;;;;;10.86;100.00;99254.94;5033079;28;20059;-59
2024/03/16 07:39:31;;;;;;;0.28;0.28;;;;;;;10.72;100.00;99252.59;5031946;28;20096;-58
2024/03/16 07:41:59;;;;;;;0.20;0.20;;;;;;;10.93;100.00;99253.75;5046750;28;20113;-58
2024/03/16 07:44:29;;;;;;;0.20;0.20;;;;;;;11.22;100.00;99264.38;5040790;28;20120;-58
2024/03/16 07:46:56;;;;;;;0.20;0.20;;;;;;;11.47;100.00;99265.81;5048345;28;21376;-58
2024/03/16 07:49:28;;;;;;;0.28;0.28;;;;;;;11.41;100.00;99268.41;5028498;28;20048;-59
2024/03/16 07:51:55;;;;;;;0.20;0.20;;;;;;;11.35;100.00;99271.25;5045596;28;20052;-58
2024/03/16 07:54:22;;;;;;;0.15;0.15;;;;;;;11.07;100.00;99282.91;5041395;28;20106;-58
2024/03/16 07:56:53;;;;;;;0.20;0.20;;;;;;;11.31;100.00;99279.00;5039530;28;20047;-58
2024/03/16 07:59:20;;;;;;;0.20;0.20;;;;;;;11.82;100.00;99279.69;5033431;28;20067;-58
2024/03/16 08:01:48;;;;;;;0.15;0.15;;;;;;;11.34;100.00;99281.19;5039331;28;20095;-58
2024/03/16 08:04:15;;;;;;;0.20;0.20;;;;;;;11.30;100.00;99289.97;5039646;28;20047;-58
2024/03/16 08:06:43;;;;;;;0.15;0.15;;;;;;;11.58;100.00;99281.81;5039759;28;20060;-58
2024/03/16 08:09:11;;;;;;;0.22;0.22;;;;;;;12.42;100.00;99299.50;5034831;28;20048;-59
2024/03/16 08:11:39;;;;;;;0.20;0.20;;;;;;;12.70;100.00;99290.38;5040562;28;20044;-58
2024/03/16 08:14:08;;;;;;;0.20;0.20;;;;;;;12.55;100.00;99292.91;5063925;28;20036;-59
2024/03/16 08:16:35;;;;;;;0.10;0.10;;;;;;;12.28;100.00;99304.47;5056922;28;20040;-59
2024/03/16 08:19:06;;;;;;;0.20;0.20;;;;;;;11.96;100.00;99307.03;5041097;28;20037;-58
2024/03/16 08:21:33;;;;;;;0.20;0.20;;;;;;;11.84;100.00;99315.16;5046061;28;20318;-58
2024/03/16 08:24:05;;;;;;;0.20;0.20;;;;;;;11.87;100.00;99322.75;5045478;28;20044;-59
2024/03/16 08:26:33;;;;;;;0.20;0.20;;;;;;;11.19;100.00;99346.16;5043199;28;20048;-58
2024/03/16 08:29:00;;;;;;;0.10;0.10;;;;;;;10.57;100.00;99354.97;5042502;28;20041;-58
2024/03/16 08:31:27;;;;;;;0.20;0.20;;;;;;;9.82;100.00;99368.41;5020512;28;20057;-58
2024/03/16 08:33:55;;;;;;;0.30;0.30;;;;;;;9.66;100.00;99372.59;5044349;28;20051;-58
2024/03/16 08:36:22;;;;;;;0.20;0.20;;;;;;;9.86;100.00;99374.91;5040346;28;20137;-58
2024/03/16 08:38:52;;;;;;;0.30;0.30;;;;;;;10.09;100.00;99385.59;5043070;28;20045;-58
2024/03/16 08:41:19;;;;;;;0.20;0.20;;;;;;;9.67;100.00;99390.28;5041378;28;20135;-58
2024/03/16 08:43:46;;;;;;;0.20;0.20;;;;;;;9.99;100.00;99390.75;5044332;28;20930;-58
2024/03/16 08:46:14;;;;;;;0.20;0.20;;;;;;;10.32;100.00;99400.84;5018993;28;20049;-58
2024/03/16 08:48:41;;;;;;;0.20;0.20;;;;;;;10.51;100.00;99414.91;5039143;28;20041;-58
2024/03/16 08:51:08;;;;;;;0.30;0.30;;;;;;;9.98;100.00;99409.72;5056863;28;20214;-58
2024/03/16 08:53:35;;;;;;;0.30;0.30;;;;;;;9.76;100.00;99420.19;5038380;28;20044;-58
2024/03/16 08:56:09;;;;;;;0.30;0.30;;;;;;;9.88;100.00;99418.31;5040637;28;20051;-58
2024/03/16 08:58:39;;;;;;;0.30;0.30;;;;;;;10.09;100.00;99428.47;5037812;28;20378;-58
2024/03/16 09:01:06;;;;;;;;;;;;;;;10.31;100.00;99436.72;5037074;28;20061;-58
2024/03/16 09:03:36;;;;;;;0.20;0.20;;;;;;;10.73;100.00;99435.69;5054114;28;19931;-59
2024/03/16 09:06:04;;;;;;;0.20;0.20;;;;;;;10.48;100.00;99439.50;5033189;28;20996;-59
2024/03/16 09:08:31;;;;;;;0.20;0.20;;;;;;;10.77;100.00;99447.56;5036010;28;20125;-58
2024/03/16 09:10:59;;;;;;;0.30;0.30;;;;;;;11.71;100.00;99460.53;5020700;28;20319;-58
2024/03/16 09:13:33;;;;;;;0.30;0.30;;;;;;;11.00;100.00;99470.81;5027667;28;20075;-59
2024/03/16 09:16:05;;;;;;;0.20;0.20;;;;;;;10.91;100.00;99466.88;5027500;28;20422;-58
2024/03/16 09:18:33;;;;;;;0.20;0.20;;;;;;;10.27;100.00;99481.06;5035263;28;20041;-58
2024/03/16 09:21:01;;;;;;;0.30;0.30;;;;;;;11.33;100.00;99486.19;5033845;28;20128;-58
2024/03/16 09:23:29;;;;;;;0.22;0.22;;;;;;;11.91;100.00;99486.91;5029220;28;20044;-59
2024/03/16 09:25:57;;;;;;;0.30;0.30;;;;;;;12.00;100.00;99500.75;5040330;28;20762;-59
2024/03/16 09:28:24;;;;;;;0.30;0.30;;;;;;;12.47;95.48;99495.78;5039415;28;20045;-58
2024/03/16 09:30:51;;;;;;;0.20;0.20;;;;;;;13.27;89.62;99498.09;5033403;28;20119;-59
2024/03/16 09:33:19;;;;;;;0.28;0.28;;;;;;;12.88;90.63;99503.56;5043272;28;20567;-59
2024/03/16 09:35:46;;;;;;;0.20;0.20;;;;;;;13.17;90.27;99499.59;5035551;28;20506;-59
2024/03/16 09:38:13;;;;;;;0.20;0.20;;;;;;;12.91;92.82;99505.75;5042076;28;20041;-59
2024/03/16 09:40:43;;;;;;;0.10;0.10;;;;;;;12.57;97.21;99521.19;5038864;28;20102;-59
2024/03/16 09:43:11;;;;;;;0.20;0.20;;;;;;;11.50;99.65;99522.97;5056900;28;20052;-59
2024/03/16 09:45:38;;;;;;;0.20;0.20;;;;;;;11.11;100.00;99530.84;5033282;28;20044;-59
2024/03/16 09:48:05;;;;;;;0.20;0.20;;;;;;;12.02;100.00;99536.25;5047447;28;20059;-59
2024/03/16 09:50:33;;;;;;;0.20;0.20;;;;;;;11.45;100.00;99542.47;5042351;28;20124;-58
2024/03/16 09:53:00;;;;;;;0.20;0.20;;;;;;;11.13;100.00;99550.19;5028160;28;20032;-59
2024/03/16 09:55:30;;;;;;;;;;;;;;;10.97;100.00;99547.19;5026644;28;20072;-59
2024/03/16 09:57:57;;;;;;;0.20;0.20;;;;;;;10.38;100.00;99553.66;5059734;28;20424;-59
2024/03/16 10:00:24;;;;;;;0.22;0.22;;;;;;;10.17;100.00;99552.34;5039738;28;20410;-59
2024/03/16 10:02:52;;;;;;;0.20;0.20;;;;;;;10.29;100.00;99551.34;5026249;28;20061;-58
2024/03/16 10:05:19;;;;;;;0.30;0.30;;;;;;;10.03;100.00;99557.09;5035126;28;20141;-59
2024/03/16 10:07:46;;;;;;;0.20;0.20;;;;;;;10.71;100.00;99555.78;5035486;28;20064;-59
2024/03/16 10:10:17;;;;;;;0.25;0.25;;;;;;;10.83;100.00;99561.91;5063163;28;20033;-59
2024/03/16 10:12:44;;;;;;;0.30;0.30;;;;;;;11.16;100.00;99555.09;5033855;28;20194;-58
2024/03/16 10:15:16;;;;;;;0.20;0.20;;;;;;;11.01;100.00;99553.72;5039333;28;20045;-58
2024/03/16 10:17:46;;;;;;;0.20;0.20;;;;;;;11.03;100.00;99572.25;5037195;28;20086;-59
2024/03/16 10:20:16;;;;;;;0.30;0.30;;;;;;;11.36;100.00;99585.00;5032444;28;20472;-58
2024/03/16 10:22:50;;;;;;;0.20;0.20;;;;;;;10.59;100.00;99569.19;5037831;28;20093;-59
2024/03/16 10:25:17;;;;;;;0.30;0.30;;;;;;;10.76;100.00;99577.31;5052113;28;20052;-59
2024/03/16 10:27:45;;;;;;;0.30;0.30;;;;;;;10.99;100.00;99579.97;5034337;28;20033;-59
2024/03/16 10:30:12;;;;;;;0.30;0.30;;;;;;;11.19;100.00;99576.88;5044772;28;20118;-58
2024/03/16 10:32:41;;;;;;;0.20;0.20;;;;;;;11.78;93.44;99573.13;5033078;28;20025;-58
2024/03/16 10:35:14;;;;;;;0.20;0.20;;;;;;;11.73;92.82;99592.66;5041732;28;20055;-58
2024/03/16 10:37:42;;;;;;;0.20;0.20;;;;;;;11.79;92.88;99591.69;5044578;28;20067;-58
2024/03/16 10:40:18;;;;;;;0.20;0.20;;;;;;;12.24;93.09;99598.94;5051492;28;20045;-59
2024/03/16 10:42:46;;;;;;;0.20;0.20;;;;;;;12.13;92.27;99601.69;5041351;28;20040;-59
2024/03/16 10:45:16;;;;;;;0.20;0.20;;;;;;;11.89;93.71;99603.72;5037108;28;20053;-58
2024/03/16 10:47:44;;;;;;;0.20;0.20;;;;;;;11.49;88.08;99593.81;5040010;28;20064;-59
2024/03/16 10:50:11;;;;;;;0.20;0.20;;;;;;;11.66;86.88;99602.75;5038101;28;20045;-59
2024/03/16 10:52:40;;;;;;;0.20;0.20;;;;;;;11.56;87.57;99605.25;5041908;28;20048;-58
2024/03/16 10:55:09;;;;;;;0.20;0.20;;;;;;;11.45;88.30;99613.06;5037297;28;20032;-58
2024/03/16 10:57:40;;;;;;;0.20;0.20;;;;;;;10.70;89.71;99615.78;5035678;28;20158;-57
2024/03/16 11:00:14;;;;;;;0.30;0.30;;;;;;;10.78;88.86;99631.50;5024928;28;20037;-58
2024/03/16 11:02:48;;;;;;;0.30;0.30;;;;;;;11.29;84.19;99629.94;5037581;28;20060;-59
2024/03/16 11:05:37;;;;;;;0.30;0.30;;;;;;;11.75;82.59;99638.88;5032602;28;20048;-59
2024/03/16 11:08:39;;;;;;;0.25;0.25;;;;;;;11.55;82.50;99649.22;5034783;28;20051;-59
2024/03/16 11:11:08;;;;;;;0.22;0.22;;;;;;;11.40;77.45;99649.72;5057519;28;20506;-58
2024/03/16 11:13:37;;;;;;;0.30;0.30;;;;;;;11.47;77.34;99660.34;5018985;28;20626;-59
2024/03/16 11:16:25;;;;;;;0.20;0.20;;;;;;;11.36;77.97;99657.44;5024536;28;20048;-59
2024/03/16 11:18:55;;;;;;;0.30;0.30;;;;;;;11.57;78.55;99663.22;5057369;28;20808;-59
2024/03/16 11:21:22;;;;;;;0.20;0.20;;;;;;;11.33;80.68;99673.19;5044472;28;20071;-58
2024/03/16 11:23:49;;;;;;;0.20;0.20;;;;;;;11.45;78.45;99672.13;5031506;28;20045;-58
2024/03/16 11:26:40;;;;;;;0.28;0.28;;;;;;;11.50;79.14;99665.22;5035380;28;20056;-59
2024/03/16 11:29:14;;;;;;;0.30;0.30;;;;;;;11.27;77.42;99658.06;5035516;28;20343;-59
2024/03/16 11:31:44;;;;;;;0.30;0.30;;;;;;;11.82;74.26;99661.03;5042322;28;20056;-58
2024/03/16 11:34:14;;;;;;;0.20;0.20;;;;;;;11.95;74.60;99669.88;5020844;28;20056;-59
2024/03/16 11:36:42;;;;;;;0.20;0.20;;;;;;;12.44;74.05;99670.22;5043078;28;20411;-59
2024/03/16 11:39:11;;;;;;;0.20;0.20;;;;;;;12.33;70.84;99674.63;5040806;28;20051;-58